Time;durP1;ratioP1;P1;durP2;ratioP2;P2;SDS_P1;SDS_P2;PMS_P1;PMS_P2;Temp;Humidity;BMP_temperature;BMP_pressure;BME280_temperature;BME280_humidity;BME280_pressure;Samples;Min_cycle;Max_cycle;Signal;HPM_P1;HPM_P2
2021/11/07 00:04:42;;;;;;;0.93;0.80;;;18.30;65.80;;;;;;6215297;23;20062;-67
2021/11/07 00:09:43;;;;;;;2.40;1.00;;;18.30;65.70;;;;;;6188979;23;20101;-67
2021/11/07 00:12:19;;;;;;;1.88;0.80;;;18.30;65.70;;;;;;6214823;23;20432;-67
2021/11/07 00:14:48;;;;;;;1.77;0.73;;;18.30;65.70;;;;;;6190926;23;19996;-67
2021/11/07 00:17:15;;;;;;;1.65;0.98;;;18.30;65.70;;;;;;6213375;23;20008;-67
2021/11/07 00:19:45;;;;;;;1.05;0.60;;;18.30;65.80;;;;;;6213810;23;20001;-67
2021/11/07 00:27:30;;;;;;;2.55;0.90;;;18.30;65.80;;;;;;6214560;23;20360;-67
2021/11/07 00:32:41;;;;;;;1.90;0.93;;;18.30;65.70;;;;;;6215299;23;20147;-67
2021/11/07 00:35:47;;;;;;;3.25;0.82;;;18.30;65.80;;;;;;6215115;23;20005;-67
2021/11/07 00:37:58;;;;;;;1.40;0.80;;;18.30;65.80;;;;;;6213992;23;20012;-67
2021/11/07 00:48:05;;;;;;;1.73;0.85;;;18.30;65.70;;;;;;6213422;23;20079;-67
2021/11/07 00:50:57;;;;;;;1.58;0.88;;;18.30;65.70;;;;;;6213663;23;20344;-67
2021/11/07 00:59:19;;;;;;;3.53;1.00;;;18.20;65.80;;;;;;6106263;23;20010;-67
2021/11/07 01:01:56;;;;;;;2.17;0.90;;;18.20;65.70;;;;;;6123065;23;20010;-67
2021/11/07 01:04:21;;;;;;;1.05;0.80;;;18.20;65.70;;;;;;6122946;23;20419;-67
2021/11/07 01:06:47;;;;;;;2.08;1.10;;;18.20;65.70;;;;;;6122911;23;20013;-67
2021/11/07 01:09:13;;;;;;;1.67;0.90;;;18.20;65.70;;;;;;6122280;23;20010;-67
2021/11/07 01:11:39;;;;;;;0.88;0.73;;;18.20;65.70;;;;;;6122946;23;20002;-67
2021/11/07 01:14:06;;;;;;;1.92;0.90;;;18.30;65.70;;;;;;6122801;23;20093;-67
2021/11/07 01:16:33;;;;;;;2.65;0.90;;;18.30;65.80;;;;;;6122804;23;20009;-67
2021/11/07 01:18:59;;;;;;;0.50;0.50;;;18.30;65.80;;;;;;6122599;23;20029;-67
2021/11/07 01:21:26;;;;;;;2.28;1.20;;;18.20;65.70;;;;;;6122747;23;20433;-67
2021/11/07 01:24:04;;;;;;;1.73;0.70;;;18.20;65.60;;;;;;6122455;23;20046;-67
2021/11/07 01:27:08;;;;;;;1.35;0.85;;;18.30;65.80;;;;;;6122858;23;20061;-67
2021/11/07 01:29:26;;;;;;;3.42;0.80;;;18.30;65.70;;;;;;6145201;23;20008;-67
2021/11/07 01:31:53;;;;;;;1.42;0.70;;;18.20;65.70;;;;;;6213164;23;20069;-67
2021/11/07 01:34:38;;;;;;;1.52;0.90;;;18.20;65.70;;;;;;6213144;23;20058;-67
2021/11/07 01:37:17;;;;;;;0.82;0.60;;;18.30;65.70;;;;;;6213364;23;20003;-67
2021/11/07 01:40:06;;;;;;;1.50;0.70;;;18.20;65.70;;;;;;6214303;23;20008;-67
2021/11/07 01:42:36;;;;;;;1.38;0.90;;;18.20;65.70;;;;;;6214501;23;20001;-67
2021/11/07 01:45:16;;;;;;;3.28;0.65;;;18.20;65.70;;;;;;6214638;23;20004;-67
2021/11/07 01:47:49;;;;;;;1.75;0.85;;;18.30;65.70;;;;;;6213350;23;20011;-67
2021/11/07 01:50:15;;;;;;;1.52;0.73;;;18.20;65.70;;;;;;6213226;23;20000;-67
2021/11/07 01:52:42;;;;;;;1.77;0.88;;;18.20;65.70;;;;;;6214286;23;20317;-67
2021/11/07 01:55:09;;;;;;;1.40;0.60;;;18.20;65.70;;;;;;6213090;23;20432;-67
2021/11/07 01:57:37;;;;;;;0.88;0.68;;;18.30;65.80;;;;;;6188350;23;20008;-67
2021/11/07 02:00:15;;;;;;;1.27;0.57;;;18.30;65.70;;;;;;6213090;23;20004;-67
2021/11/07 02:02:40;;;;;;;2.58;0.50;;;18.30;65.70;;;;;;6214609;23;20072;-67
2021/11/07 02:05:07;;;;;;;1.13;0.75;;;18.30;65.70;;;;;;6213083;23;20024;-67
2021/11/07 02:07:33;;;;;;;1.33;0.75;;;18.20;65.60;;;;;;6188973;23;20004;-67
2021/11/07 02:10:00;;;;;;;0.75;0.55;;;18.30;65.70;;;;;;6214875;23;20001;-67
2021/11/07 02:12:25;;;;;;;1.38;0.73;;;18.30;65.70;;;;;;6189909;23;20047;-67
2021/11/07 02:14:51;;;;;;;2.35;0.75;;;18.30;65.70;;;;;;6216577;23;20336;-67
2021/11/07 02:17:16;;;;;;;0.85;0.52;;;18.30;65.70;;;;;;6216056;23;20012;-67
2021/11/07 02:19:44;;;;;;;1.83;0.75;;;18.30;65.60;;;;;;6216344;23;20011;-67
2021/11/07 02:22:09;;;;;;;3.70;0.70;;;18.30;65.70;;;;;;6214494;23;20004;-67
2021/11/07 02:24:36;;;;;;;2.50;0.70;;;18.30;65.70;;;;;;6189806;23;20336;-67
2021/11/07 02:27:03;;;;;;;1.38;0.70;;;18.30;65.60;;;;;;6216472;23;20013;-67
2021/11/07 02:29:29;;;;;;;1.58;0.65;;;18.30;65.70;;;;;;6214777;23;20001;-67
2021/11/07 02:31:56;;;;;;;1.65;0.40;;;18.30;65.60;;;;;;6214730;23;19996;-67
2021/11/07 02:34:23;;;;;;;1.20;0.80;;;18.30;65.60;;;;;;6216227;23;20031;-67
2021/11/07 02:36:49;;;;;;;0.60;0.50;;;18.30;65.60;;;;;;6215972;23;20001;-67
2021/11/07 02:39:15;;;;;;;1.10;0.60;;;18.30;65.60;;;;;;6214636;23;20012;-67
2021/11/07 02:41:42;;;;;;;0.65;0.43;;;18.30;65.60;;;;;;6216291;23;20005;-67
2021/11/07 02:44:08;;;;;;;3.38;0.77;;;18.30;65.60;;;;;;6189842;23;20005;-67
2021/11/07 02:46:33;;;;;;;0.93;0.50;;;18.30;65.60;;;;;;6214596;23;20072;-67
2021/11/07 02:49:00;;;;;;;2.90;0.65;;;18.30;65.70;;;;;;6214647;23;20072;-67
2021/11/07 02:51:29;;;;;;;0.85;0.60;;;18.30;65.60;;;;;;6214126;23;20008;-67
2021/11/07 02:53:54;;;;;;;1.70;0.52;;;18.30;65.60;;;;;;6216054;23;19997;-67
2021/11/07 02:56:20;;;;;;;2.15;1.17;;;18.30;65.60;;;;;;6214448;23;20059;-67
2021/11/07 02:58:47;;;;;;;0.82;0.63;;;18.30;65.60;;;;;;6164801;23;20087;-67
2021/11/07 03:01:13;;;;;;;1.13;0.63;;;18.30;65.60;;;;;;6214406;23;20458;-67
2021/11/07 03:03:39;;;;;;;0.82;0.60;;;18.30;65.70;;;;;;6215965;23;20005;-67
2021/11/07 03:06:04;;;;;;;1.60;0.50;;;18.30;65.60;;;;;;6189149;23;20080;-67
2021/11/07 03:08:30;;;;;;;1.30;0.60;;;18.30;65.60;;;;;;6214133;23;20058;-67
2021/11/07 03:10:56;;;;;;;1.85;0.60;;;18.30;65.70;;;;;;6215721;23;20325;-67
2021/11/07 03:13:21;;;;;;;0.80;0.40;;;18.30;66.70;;;;;;6214154;23;20004;-67
2021/11/07 03:15:47;;;;;;;0.80;0.50;;;18.30;65.60;;;;;;6189457;23;20001;-67
2021/11/07 03:18:13;;;;;;;1.15;0.43;;;18.30;65.70;;;;;;6215363;23;20416;-67
2021/11/07 03:20:39;;;;;;;2.05;0.50;;;18.30;65.60;;;;;;6215157;23;20009;-67
2021/11/07 03:23:05;;;;;;;0.98;0.47;;;18.30;65.70;;;;;;6189518;23;20011;-67
2021/11/07 03:25:31;;;;;;;0.95;0.30;;;18.30;65.60;;;;;;6215603;23;20036;-67
2021/11/07 03:27:57;;;;;;;1.20;0.47;;;18.30;65.60;;;;;;6189335;23;20008;-67
2021/11/07 03:32:58;;;;;;;2.30;0.50;;;18.30;65.70;;;;;;6189579;23;20331;-67
2021/11/07 03:35:23;;;;;;;2.03;0.80;;;18.30;65.70;;;;;;6189437;23;20015;-67
2021/11/07 03:37:56;;;;;;;1.83;0.73;;;18.30;65.70;;;;;;6214142;23;20001;-67
2021/11/07 03:40:23;;;;;;;1.58;0.68;;;18.30;65.70;;;;;;6215994;23;20072;-67
2021/11/07 03:42:49;;;;;;;1.60;0.47;;;18.30;65.60;;;;;;6214171;23;20383;-67
2021/11/07 03:45:15;;;;;;;0.90;0.50;;;18.30;65.60;;;;;;6215332;23;20072;-67
2021/11/07 03:47:41;;;;;;;1.23;0.40;;;18.30;65.70;;;;;;6215458;23;20119;-67
2021/11/07 03:50:07;;;;;;;1.15;0.45;;;18.30;65.60;;;;;;6215002;23;20032;-67
2021/11/07 03:52:33;;;;;;;1.30;0.63;;;18.30;65.60;;;;;;6213814;23;20008;-67
2021/11/07 03:54:58;;;;;;;0.55;0.32;;;18.30;65.70;;;;;;6215436;23;20001;-67
2021/11/07 03:57:24;;;;;;;0.65;0.40;;;18.30;65.70;;;;;;6188741;23;20314;-67
2021/11/07 03:59:50;;;;;;;0.30;0.28;;;18.30;65.70;;;;;;6214028;23;20076;-67
2021/11/07 04:02:15;;;;;;;1.65;0.47;;;18.30;65.60;;;;;;6215301;23;20008;-67
2021/11/07 04:04:41;;;;;;;0.35;0.35;;;18.30;65.70;;;;;;6214826;23;20428;-67
2021/11/07 04:07:07;;;;;;;0.75;0.60;;;18.30;65.70;;;;;;6215263;23;20077;-67
2021/11/07 04:09:32;;;;;;;0.80;0.40;;;18.30;65.70;;;;;;6214885;23;20008;-67
2021/11/07 04:11:59;;;;;;;0.82;0.35;;;18.30;65.70;;;;;;6215234;23;19997;-67
2021/11/07 04:14:25;;;;;;;1.05;0.50;;;18.30;65.70;;;;;;6215110;23;20000;-67
2021/11/07 04:16:50;;;;;;;0.50;0.50;;;18.30;65.60;;;;;;6215065;23;20020;-67
2021/11/07 04:19:16;;;;;;;1.05;0.40;;;18.30;65.60;;;;;;6214783;23;20079;-67
2021/11/07 04:21:45;;;;;;;0.68;0.47;;;18.30;65.60;;;;;;6213721;23;20420;-67
2021/11/07 04:24:11;;;;;;;1.30;0.47;;;18.30;65.60;;;;;;6215203;23;20008;-67
2021/11/07 04:26:36;;;;;;;1.95;0.43;;;18.30;65.70;;;;;;6213500;23;20005;-67
2021/11/07 04:29:03;;;;;;;0.77;0.40;;;18.30;65.70;;;;;;6213404;23;20014;-67
2021/11/07 04:31:28;;;;;;;2.15;0.30;;;18.30;65.70;;;;;;6213530;23;20335;-67
2021/11/07 04:33:54;;;;;;;0.75;0.50;;;18.30;65.70;;;;;;6188185;23;20079;-67
2021/11/07 04:36:20;;;;;;;0.40;0.40;;;18.30;65.70;;;;;;6214954;23;20007;-67
2021/11/07 04:38:45;;;;;;;0.57;0.30;;;18.40;65.70;;;;;;6214948;23;20011;-67
2021/11/07 04:41:17;;;;;;;0.47;0.30;;;18.30;65.70;;;;;;6213545;23;20001;-67
2021/11/07 04:43:42;;;;;;;0.52;0.43;;;18.30;65.70;;;;;;6213577;23;20080;-67
2021/11/07 04:46:08;;;;;;;0.93;0.55;;;18.30;65.70;;;;;;6214888;23;20008;-67
2021/11/07 04:48:34;;;;;;;0.73;0.35;;;18.30;65.70;;;;;;6212857;23;20001;-67
2021/11/07 04:50:59;;;;;;;0.30;0.30;;;18.30;65.70;;;;;;6214943;23;20462;-67
2021/11/07 04:53:25;;;;;;;1.23;0.38;;;18.30;65.60;;;;;;6214721;23;20000;-67
2021/11/07 04:55:50;;;;;;;0.63;0.32;;;18.30;65.60;;;;;;6214782;23;20001;-67
2021/11/07 04:58:16;;;;;;;0.20;0.20;;;18.40;65.70;;;;;;6214835;23;20509;-67
2021/11/07 05:00:42;;;;;;;0.30;0.30;;;18.30;65.70;;;;;;6213225;23;20428;-67
2021/11/07 05:03:08;;;;;;;0.95;0.40;;;18.30;65.60;;;;;;6188005;23;20005;-67
2021/11/07 05:05:34;;;;;;;0.20;0.20;;;18.40;65.70;;;;;;6213264;23;20001;-67
2021/11/07 05:08:00;;;;;;;0.43;0.43;;;18.30;65.70;;;;;;6188238;23;20000;-67
2021/11/07 05:10:26;;;;;;;0.22;0.22;;;18.40;65.70;;;;;;6188143;23;20003;-67
2021/11/07 05:12:51;;;;;;;0.63;0.40;;;18.40;65.70;;;;;;6213705;23;20060;-67
2021/11/07 05:15:17;;;;;;;0.70;0.50;;;18.30;65.70;;;;;;6213230;23;20067;-67
2021/11/07 05:17:43;;;;;;;0.60;0.40;;;18.30;65.70;;;;;;6187669;23;20070;-67
2021/11/07 05:20:09;;;;;;;0.63;0.40;;;18.30;65.70;;;;;;6214635;23;20000;-67
2021/11/07 05:22:35;;;;;;;0.28;0.20;;;18.30;65.60;;;;;;6188154;23;20024;-67
2021/11/07 05:25:00;;;;;;;0.73;0.40;;;18.40;65.70;;;;;;6214833;23;20047;-67
2021/11/07 05:27:26;;;;;;;0.15;0.15;;;18.40;65.70;;;;;;6188175;23;20411;-67
2021/11/07 05:29:52;;;;;;;0.28;0.20;;;18.30;65.70;;;;;;6213041;23;20004;-67
2021/11/07 05:32:18;;;;;;;0.40;0.30;;;18.40;65.70;;;;;;6212811;23;19996;-67
2021/11/07 05:34:45;;;;;;;0.50;0.40;;;18.30;65.70;;;;;;6214452;23;20004;-67
2021/11/07 05:37:11;;;;;;;1.35;0.20;;;18.30;65.70;;;;;;6213168;23;20001;-67
2021/11/07 05:39:37;;;;;;;0.82;0.28;;;18.30;65.70;;;;;;6214623;23;20462;-67
2021/11/07 05:42:03;;;;;;;0.45;0.40;;;18.40;65.70;;;;;;6214794;23;20016;-67
2021/11/07 05:44:29;;;;;;;0.30;0.30;;;18.40;65.70;;;;;;6215163;23;20005;-67
2021/11/07 05:46:55;;;;;;;0.88;0.30;;;18.40;65.70;;;;;;6216680;23;20000;-67
2021/11/07 05:49:21;;;;;;;0.93;0.40;;;18.30;65.70;;;;;;6190208;23;20054;-67
2021/11/07 05:51:47;;;;;;;1.15;0.30;;;18.30;65.70;;;;;;6215211;23;20071;-67
2021/11/07 05:54:12;;;;;;;0.47;0.30;;;18.40;65.70;;;;;;6190256;23;20011;-67
2021/11/07 05:56:38;;;;;;;0.60;0.30;;;18.30;65.70;;;;;;6216494;23;20404;-67
2021/11/07 05:59:04;;;;;;;0.30;0.30;;;18.40;65.70;;;;;;6214760;23;20005;-67
2021/11/07 06:01:30;;;;;;;0.55;0.20;;;18.30;65.70;;;;;;6215117;23;20074;-67
2021/11/07 06:03:56;;;;;;;0.30;0.20;;;18.30;65.70;;;;;;6215025;23;20080;-67
2021/11/07 06:06:21;;;;;;;0.47;0.20;;;18.30;65.70;;;;;;6216578;23;20024;-67
2021/11/07 06:08:47;;;;;;;0.73;0.38;;;18.30;65.70;;;;;;6189828;23;20115;-67
2021/11/07 06:11:13;;;;;;;0.38;0.22;;;18.40;65.70;;;;;;6214886;23;20004;-67
2021/11/07 06:13:38;;;;;;;0.60;0.40;;;18.40;65.80;;;;;;6215999;23;20067;-67
2021/11/07 06:16:04;;;;;;;0.73;0.32;;;18.30;65.70;;;;;;6214930;23;20001;-67
2021/11/07 06:18:30;;;;;;;0.80;0.30;;;18.30;65.70;;;;;;6214752;23;20074;-67
2021/11/07 06:20:56;;;;;;;1.17;0.38;;;18.40;65.70;;;;;;6214870;23;20031;-67
2021/11/07 06:23:23;;;;;;;0.90;0.30;;;18.30;65.70;;;;;;6214908;23;20005;-67
2021/11/07 06:25:48;;;;;;;1.30;0.40;;;18.30;65.70;;;;;;6214801;23;20011;-67
2021/11/07 06:28:16;;;;;;;1.10;0.43;;;18.40;65.80;;;;;;6215896;23;20004;-67
2021/11/07 06:30:42;;;;;;;0.98;0.40;;;18.30;65.70;;;;;;6214729;23;20000;-67
2021/11/07 06:33:08;;;;;;;1.80;0.43;;;18.30;65.70;;;;;;6216137;23;20030;-67
2021/11/07 06:35:33;;;;;;;0.38;0.20;;;18.30;65.70;;;;;;6216166;23;20001;-67
2021/11/07 06:37:59;;;;;;;1.05;0.20;;;18.40;65.70;;;;;;6216127;23;20516;-67
2021/11/07 06:40:24;;;;;;;0.57;0.38;;;18.30;65.70;;;;;;6214754;23;20009;-67
2021/11/07 06:42:50;;;;;;;1.55;0.40;;;18.30;65.70;;;;;;6214277;23;20001;-67
2021/11/07 06:45:16;;;;;;;1.90;0.60;;;18.40;65.70;;;;;;6214512;23;20008;-67
2021/11/07 06:47:41;;;;;;;0.80;0.20;;;18.30;65.70;;;;;;6215929;23;20000;-67
2021/11/07 06:50:07;;;;;;;3.13;0.90;;;18.30;65.70;;;;;;6189581;23;20007;-67
2021/11/07 06:52:33;;;;;;;1.00;0.50;;;18.40;65.70;;;;;;6215511;23;20011;-67
2021/11/07 06:55:00;;;;;;;2.83;0.70;;;18.30;65.70;;;;;;6216067;23;20072;-67
2021/11/07 06:57:26;;;;;;;1.58;0.30;;;18.40;65.70;;;;;;6214105;23;20052;-67
2021/11/07 06:59:51;;;;;;;1.95;0.52;;;18.40;65.70;;;;;;6214418;23;20004;-67
2021/11/07 07:02:17;;;;;;;0.60;0.35;;;18.30;65.70;;;;;;6214670;23;20007;-67
2021/11/07 07:04:43;;;;;;;1.85;0.30;;;18.30;65.70;;;;;;6215757;23;20016;-67
2021/11/07 07:07:09;;;;;;;2.65;0.80;;;18.30;65.70;;;;;;6214522;23;20440;-67
2021/11/07 07:09:44;;;;;;;0.90;0.30;;;18.40;65.70;;;;;;6214222;23;20028;-67
2021/11/07 07:12:19;;;;;;;2.33;0.32;;;18.40;65.80;;;;;;6215554;23;19997;-67
2021/11/07 07:15:00;;;;;;;1.92;0.40;;;18.40;65.80;;;;;;6214372;23;20391;-67
2021/11/07 07:17:42;;;;;;;1.20;0.40;;;18.40;65.80;;;;;;6215536;23;20479;-67
2021/11/07 07:23:14;;;;;;;0.93;0.30;;;18.30;65.80;;;;;;6189317;23;20348;-67
2021/11/07 07:33:33;;;;;;;2.08;0.40;;;18.30;65.80;;;;;;6215559;23;20067;-67
2021/11/07 07:35:59;;;;;;;2.10;0.40;;;18.30;65.80;;;;;;6215570;23;20063;-67
2021/11/07 07:38:25;;;;;;;2.55;0.50;;;18.30;65.80;;;;;;6215661;23;20005;-67
2021/11/07 07:40:51;;;;;;;0.75;0.30;;;18.30;65.80;;;;;;6213712;23;20028;-67
2021/11/07 07:43:17;;;;;;;1.38;0.43;;;18.30;65.70;;;;;;6214285;23;20054;-67
2021/11/07 07:45:43;;;;;;;1.02;0.30;;;18.40;65.90;;;;;;6215420;23;20000;-67
2021/11/07 07:48:09;;;;;;;2.10;0.38;;;18.30;65.70;;;;;;6214013;23;20001;-68
2021/11/07 07:50:38;;;;;;;1.27;0.35;;;18.40;65.80;;;;;;6213927;23;20004;-68
2021/11/07 07:53:05;;;;;;;1.38;0.30;;;18.40;65.80;;;;;;6215442;23;20003;-68
2021/11/07 07:55:30;;;;;;;1.88;0.30;;;18.30;65.70;;;;;;6213719;23;19997;-67
2021/11/07 07:57:56;;;;;;;4.00;0.85;;;18.40;65.80;;;;;;6215191;23;19996;-67
2021/11/07 08:00:23;;;;;;;3.22;0.45;;;18.40;65.80;;;;;;6215524;23;20004;-67
2021/11/07 08:02:48;;;;;;;1.88;0.43;;;18.40;65.70;;;;;;6213810;23;20001;-67
2021/11/07 08:05:14;;;;;;;1.38;0.45;;;18.30;65.70;;;;;;6213849;23;20126;-67
2021/11/07 08:07:43;;;;;;;0.35;0.28;;;18.40;65.70;;;;;;6215293;23;20000;-67
2021/11/07 08:10:10;;;;;;;3.85;0.63;;;18.30;65.70;;;;;;6213560;23;20055;-67
2021/11/07 08:12:38;;;;;;;1.98;0.47;;;18.30;65.70;;;;;;6213811;23;20024;-67
2021/11/07 08:15:04;;;;;;;1.75;0.65;;;18.30;65.70;;;;;;6213827;23;20000;-67
2021/11/07 08:17:30;;;;;;;1.60;0.38;;;18.30;65.70;;;;;;6213692;23;20013;-67
2021/11/07 08:19:56;;;;;;;2.70;0.40;;;18.30;65.70;;;;;;6214952;23;20403;-67
2021/11/07 08:22:21;;;;;;;2.30;0.50;;;18.30;65.70;;;;;;6213852;23;20068;-67
2021/11/07 08:24:47;;;;;;;1.15;0.43;;;18.40;65.70;;;;;;6214591;23;20348;-67
2021/11/07 08:27:13;;;;;;;2.05;0.50;;;18.30;65.70;;;;;;6213683;23;20014;-67
2021/11/07 08:29:39;;;;;;;1.35;0.50;;;18.40;65.70;;;;;;6214937;23;20007;-67
2021/11/07 08:32:05;;;;;;;2.30;0.35;;;18.30;65.70;;;;;;6215011;23;20001;-67
2021/11/07 08:34:32;;;;;;;1.20;0.50;;;18.30;65.70;;;;;;6214905;23;20050;-67
2021/11/07 08:37:03;;;;;;;2.22;0.40;;;18.40;65.70;;;;;;6214965;23;20000;-67
2021/11/07 08:42:04;;;;;;;1.05;0.40;;;18.30;65.70;;;;;;6214759;23;20036;-67
2021/11/07 09:01:10;;;;;;;1.40;0.50;;;18.30;65.80;;;;;;6123000;23;20017;-67
2021/11/07 09:03:52;;;;;;;2.35;0.50;;;18.30;65.80;;;;;;6122915;23;20010;-67
2021/11/07 09:08:50;;;;;;;2.75;0.45;;;18.30;65.80;;;;;;6122349;23;20010;-67
2021/11/07 09:11:17;;;;;;;2.17;0.70;;;18.30;65.80;;;;;;6122819;23;20017;-67
2021/11/07 09:13:42;;;;;;;1.00;0.30;;;18.40;65.80;;;;;;6122879;23;20005;-67
2021/11/07 09:16:10;;;;;;;1.60;0.50;;;18.40;65.80;;;;;;6122713;23;20410;-67
2021/11/07 09:18:36;;;;;;;2.22;0.50;;;18.30;65.70;;;;;;6122723;23;20441;-67
2021/11/07 09:21:09;;;;;;;1.35;0.70;;;18.30;65.70;;;;;;6122714;23;20006;-67
2021/11/07 09:23:54;;;;;;;2.10;0.57;;;18.30;65.70;;;;;;6122603;23;20458;-67
2021/11/07 09:26:30;;;;;;;2.80;0.63;;;18.30;65.80;;;;;;6123034;23;20072;-67
2021/11/07 09:29:08;;;;;;;1.60;0.52;;;18.40;65.80;;;;;;6141675;23;20436;-67
2021/11/07 09:36:37;;;;;;;1.20;0.57;;;18.30;65.70;;;;;;6213558;23;20005;-67
2021/11/07 09:44:08;;;;;;;3.15;0.60;;;18.40;65.80;;;;;;6188463;23;20005;-67
2021/11/07 09:46:52;;;;;;;1.42;0.63;;;18.30;65.70;;;;;;6214569;23;20069;-67
2021/11/07 09:49:23;;;;;;;1.50;0.65;;;18.40;65.80;;;;;;6214504;23;20031;-67
2021/11/07 09:52:05;;;;;;;2.00;0.57;;;18.30;65.70;;;;;;6212704;23;20336;-67
2021/11/07 09:54:31;;;;;;;2.33;0.80;;;18.40;65.70;;;;;;6214690;23;20436;-67
2021/11/07 09:56:58;;;;;;;2.42;0.80;;;18.30;65.70;;;;;;6213077;23;20059;-67
2021/11/07 09:59:25;;;;;;;1.73;0.60;;;18.40;65.80;;;;;;6213108;23;20032;-67
2021/11/07 10:01:51;;;;;;;2.75;0.50;;;18.40;65.70;;;;;;6213093;23;20005;-67
2021/11/07 10:04:17;;;;;;;2.00;0.50;;;18.40;65.70;;;;;;6213123;23;20067;-67
2021/11/07 10:06:46;;;;;;;4.40;0.93;;;18.40;65.80;;;;;;6212703;23;20005;-67
2021/11/07 10:09:12;;;;;;;1.42;0.50;;;18.40;65.70;;;;;;6212966;23;20348;-67
2021/11/07 10:12:15;;;;;;;1.92;0.50;;;18.40;65.80;;;;;;6214453;23;20039;-67
2021/11/07 10:14:45;;;;;;;3.00;0.75;;;18.40;65.50;;;;;;6093303;23;20473;-67
2021/11/07 10:17:40;;;;;;;1.80;0.90;;;18.40;65.80;;;;;;6093160;23;20042;-67
2021/11/07 10:20:24;;;;;;;2.15;0.60;;;18.40;65.70;;;;;;6072010;23;20584;-67
2021/11/07 10:22:56;;;;;;;2.40;0.50;;;18.40;65.80;;;;;;6072795;23;20017;-67
2021/11/07 10:25:29;;;;;;;4.68;0.80;;;18.40;65.80;;;;;;6069870;23;20033;-67
2021/11/07 10:27:57;;;;;;;1.80;0.55;;;18.30;65.70;;;;;;6093845;23;20461;-67
2021/11/07 10:30:27;;;;;;;2.40;0.68;;;18.30;65.70;;;;;;6047627;23;20374;-67
2021/11/07 10:33:21;;;;;;;3.38;0.80;;;18.40;65.80;;;;;;6095072;23;20501;-67
2021/11/07 10:36:25;;;;;;;3.15;1.00;;;18.40;65.70;;;;;;6094712;23;20069;-67
2021/11/07 10:52:37;;;;;;;2.38;0.90;;;18.30;65.70;;;;;;6216064;23;20012;-67
2021/11/07 10:55:06;;;;;;;2.60;0.77;;;18.40;65.80;;;;;;6214607;23;19997;-67
2021/11/07 10:57:32;;;;;;;2.50;1.00;;;18.40;65.80;;;;;;6214693;23;20004;-67
2021/11/07 11:00:16;;;;;;;2.38;0.80;;;18.40;65.80;;;;;;6215820;23;20347;-67
2021/11/07 11:02:45;;;;;;;3.20;0.80;;;18.40;65.60;;;;;;6215913;23;20011;-67
2021/11/07 11:05:15;;;;;;;5.30;0.90;;;18.40;65.70;;;;;;6215335;23;20317;-67
2021/11/07 11:08:01;;;;;;;3.40;0.80;;;18.40;65.70;;;;;;6215950;23;20006;-67
2021/11/07 11:11:11;;;;;;;2.67;1.00;;;18.40;65.60;;;;;;6215835;23;20008;-67
2021/11/07 11:13:47;;;;;;;3.08;1.13;;;18.40;65.70;;;;;;6189991;23;20008;-67
2021/11/07 11:24:06;;;;;;;2.95;0.90;;;18.40;65.70;;;;;;6214310;23;20001;-67
2021/11/07 11:32:29;;;;;;;3.53;1.50;;;18.40;65.70;;;;;;6214547;23;20502;-67
2021/11/07 11:34:45;;;;;;;1.63;0.73;;;18.40;65.60;;;;;;6194344;23;20007;-67
2021/11/07 11:37:22;;;;;;;3.22;1.00;;;18.40;65.60;;;;;;6214110;23;20440;-67
2021/11/07 11:39:58;;;;;;;3.28;1.10;;;18.40;65.70;;;;;;6214157;23;20011;-67
2021/11/07 11:42:29;;;;;;;7.10;1.10;;;18.40;65.70;;;;;;6214286;23;20012;-67
2021/11/07 11:44:56;;;;;;;2.58;0.80;;;18.40;65.60;;;;;;6190353;23;20009;-67
2021/11/07 11:47:36;;;;;;;1.95;0.60;;;18.40;65.60;;;;;;6213657;23;20008;-67
2021/11/07 11:52:55;;;;;;;4.32;1.33;;;18.40;65.60;;;;;;6215407;23;20011;-67
2021/11/07 12:03:21;;;;;;;3.75;0.85;;;18.50;65.60;;;;;;6214985;23;20058;-67
2021/11/07 12:05:51;;;;;;;3.88;0.90;;;18.40;65.60;;;;;;6191108;23;20000;-67
2021/11/07 12:08:37;;;;;;;4.15;1.15;;;18.40;65.60;;;;;;6215123;23;20004;-67
2021/11/07 12:11:36;;;;;;;3.80;1.02;;;18.50;65.60;;;;;;6213880;23;19997;-67
2021/11/07 12:14:15;;;;;;;5.25;1.00;;;18.50;65.60;;;;;;6215322;23;20026;-67
2021/11/07 12:17:05;;;;;;;4.15;1.25;;;18.50;65.60;;;;;;6166813;23;20011;-67
2021/11/07 12:19:44;;;;;;;3.05;0.85;;;18.50;65.60;;;;;;6215256;23;20017;-67
2021/11/07 12:22:17;;;;;;;4.65;0.98;;;18.50;65.60;;;;;;6213664;23;20004;-67
2021/11/07 12:24:49;;;;;;;1.77;0.77;;;18.50;65.50;;;;;;6188748;23;20010;-67
2021/11/07 12:27:34;;;;;;;3.25;0.75;;;18.50;65.60;;;;;;6215010;23;20008;-67
2021/11/07 12:30:27;;;;;;;3.58;0.90;;;18.50;65.50;;;;;;6214947;23;20008;-67
2021/11/07 12:33:07;;;;;;;5.63;1.17;;;18.50;65.40;;;;;;6214778;23;20003;-67
2021/11/07 12:35:41;;;;;;;2.83;0.80;;;18.50;65.40;;;;;;6215123;23;20000;-67
2021/11/07 12:41:13;;;;;;;2.90;0.77;;;18.50;65.40;;;;;;6214987;23;20011;-67
2021/11/07 12:43:46;;;;;;;4.45;1.17;;;18.50;65.50;;;;;;6215027;23;20001;-67
2021/11/07 12:49:16;;;;;;;2.05;0.70;;;18.50;65.50;;;;;;6215166;23;20149;-67
2021/11/07 12:51:42;;;;;;;2.97;0.80;;;18.50;65.40;;;;;;6190090;23;20344;-67
2021/11/07 12:54:13;;;;;;;4.10;1.10;;;18.50;65.50;;;;;;6214789;23;20024;-67
2021/11/07 12:56:55;;;;;;;2.70;0.95;;;18.50;65.50;;;;;;6214836;23;19996;-67
2021/11/07 12:59:30;;;;;;;3.65;1.00;;;18.50;65.40;;;;;;6213334;23;20000;-67
2021/11/07 13:02:04;;;;;;;5.25;1.10;;;18.50;65.40;;;;;;6214333;23;20043;-67
2021/11/07 13:04:33;;;;;;;3.63;1.10;;;18.50;65.40;;;;;;6214796;23;20436;-67
2021/11/07 13:07:00;;;;;;;5.80;1.20;;;18.50;65.40;;;;;;6213470;23;20071;-67
2021/11/07 13:09:39;;;;;;;2.90;1.15;;;18.50;65.40;;;;;;6214590;23;20004;-67
2021/11/07 13:12:10;;;;;;;3.00;0.88;;;18.50;65.40;;;;;;6190838;23;20008;-67
2021/11/07 13:15:26;;;;;;;3.42;1.23;;;18.60;65.40;;;;;;6212869;23;20306;-67
2021/11/07 13:26:11;;;;;;;4.78;1.00;;;18.50;65.40;;;;;;6213398;23;20397;-67
2021/11/07 13:28:43;;;;;;;2.75;0.93;;;18.50;65.30;;;;;;6214567;23;20011;-67
2021/11/07 13:31:21;;;;;;;2.83;0.80;;;18.50;65.40;;;;;;6213313;23;20002;-67
2021/11/07 13:33:46;;;;;;;4.93;1.30;;;18.50;65.40;;;;;;6189859;23;20003;-67
2021/11/07 13:36:14;;;;;;;2.97;1.00;;;18.50;65.40;;;;;;6213160;23;20000;-67
2021/11/07 13:38:48;;;;;;;5.80;1.00;;;18.50;65.40;;;;;;6214760;23;20001;-67
2021/11/07 13:41:16;;;;;;;4.38;1.17;;;18.60;65.40;;;;;;6213260;23;20467;-67
2021/11/07 13:43:54;;;;;;;5.15;1.20;;;18.50;65.30;;;;;;6214505;23;20005;-67
2021/11/07 13:46:20;;;;;;;5.85;1.00;;;18.60;65.30;;;;;;6214756;23;20011;-67
2021/11/07 13:48:53;;;;;;;4.70;1.02;;;18.60;65.40;;;;;;6212958;23;20403;-67
2021/11/07 13:51:19;;;;;;;5.00;1.13;;;18.50;65.20;;;;;;6189785;23;20003;-67
2021/11/07 13:53:45;;;;;;;3.63;1.40;;;18.60;65.30;;;;;;6214678;23;20004;-67
2021/11/07 13:56:12;;;;;;;2.67;0.90;;;18.60;65.30;;;;;;6214778;23;20001;-67
2021/11/07 13:58:40;;;;;;;2.45;1.00;;;18.60;65.20;;;;;;6212826;23;20004;-67
2021/11/07 14:01:10;;;;;;;5.60;1.00;;;18.60;65.20;;;;;;6213101;23;20000;-67
2021/11/07 14:03:36;;;;;;;3.15;0.93;;;18.60;65.20;;;;;;6215174;23;20000;-67
2021/11/07 14:06:14;;;;;;;3.92;1.10;;;18.60;65.20;;;;;;6215103;23;20001;-67
2021/11/07 14:08:46;;;;;;;3.85;1.38;;;18.60;65.20;;;;;;6192530;23;20022;-67
2021/11/07 14:11:19;;;;;;;4.30;1.00;;;18.60;65.20;;;;;;6214952;23;20027;-67
2021/11/07 14:13:47;;;;;;;2.85;1.20;;;18.60;65.20;;;;;;6214738;23;20327;-67
2021/11/07 14:16:17;;;;;;;6.13;1.00;;;18.60;65.20;;;;;;6190374;23;20004;-67
2021/11/07 14:18:47;;;;;;;4.82;1.42;;;18.60;65.20;;;;;;6214902;23;20028;-67
2021/11/07 14:21:14;;;;;;;7.25;1.20;;;18.60;65.10;;;;;;6189942;23;20051;-67
2021/11/07 14:23:54;;;;;;;4.80;1.30;;;18.60;65.10;;;;;;6215074;23;20408;-67
2021/11/07 14:26:33;;;;;;;4.53;1.52;;;18.60;65.20;;;;;;6216560;23;20028;-67
2021/11/07 14:29:31;;;;;;;4.53;1.15;;;18.60;65.10;;;;;;6214941;23;20348;-67
2021/11/07 14:34:58;;;;;;;2.70;1.02;;;18.60;65.20;;;;;;6215393;23;20008;-67
2021/11/07 14:37:29;;;;;;;3.53;0.82;;;18.60;65.20;;;;;;6215044;23;19996;-67
2021/11/07 14:40:14;;;;;;;4.65;1.30;;;18.60;65.10;;;;;;6214952;23;20391;-67
2021/11/07 14:53:48;;;;;;;7.28;1.40;;;18.60;65.10;;;;;;6216186;23;20055;-67
2021/11/07 15:01:39;;;;;;;4.55;1.17;;;18.60;65.00;;;;;;6192069;23;20005;-67
2021/11/07 15:04:22;;;;;;;6.45;1.17;;;18.60;65.20;;;;;;6191317;23;20452;-67
2021/11/07 15:06:58;;;;;;;2.53;0.93;;;18.60;65.10;;;;;;6214786;23;20499;-67
2021/11/07 15:09:42;;;;;;;6.07;1.02;;;18.60;65.00;;;;;;6214539;23;20008;-67
2021/11/07 15:12:20;;;;;;;3.17;0.90;;;18.60;65.10;;;;;;6215517;23;20001;-67
2021/11/07 15:17:54;;;;;;;3.35;1.00;;;18.60;64.90;;;;;;6215784;23;20395;-67
2021/11/07 15:23:01;;;;;;;3.78;1.00;;;18.60;65.10;;;;;;6215942;23;20009;-67
2021/11/07 15:25:35;;;;;;;3.67;0.77;;;18.60;65.10;;;;;;6213962;23;20005;-67
2021/11/07 15:28:08;;;;;;;4.30;1.00;;;18.60;65.00;;;;;;6215763;23;20028;-67
2021/11/07 15:30:37;;;;;;;1.90;1.00;;;18.60;65.00;;;;;;6214388;23;20367;-67
2021/11/07 15:33:08;;;;;;;5.00;1.30;;;18.60;65.00;;;;;;6214519;23;20440;-67